sensor_id;sensor_type;location;lat;lon;timestamp;pressure;altitude;pressure_sealevel;temperature;humidity
72677;BME280;60755;51.374;10.662;2022-12-28T00:02:12;97704.03;;;2.29;98.48
72677;BME280;60755;51.374;10.662;2022-12-28T00:04:39;97707.25;;;2.31;98.95
72677;BME280;60755;51.374;10.662;2022-12-28T00:07:06;97703.44;;;2.19;99.91
72677;BME280;60755;51.374;10.662;2022-12-28T00:09:33;97703.78;;;2.08;100.00
72677;BME280;60755;51.374;10.662;2022-12-28T00:12:01;97691.38;;;2.03;100.00
72677;BME280;60755;51.374;10.662;2022-12-28T00:14:28;97683.00;;;1.93;98.68
72677;BME280;60755;51.374;10.662;2022-12-28T00:16:57;97684.91;;;1.91;100.00
72677;BME280;60755;51.374;10.662;2022-12-28T00:19:24;97684.47;;;1.87;100.00
72677;BME280;60755;51.374;10.662;2022-12-28T00:21:52;97673.28;;;1.87;99.61
72677;BME280;60755;51.374;10.662;2022-12-28T00:24:21;97658.38;;;1.89;100.00
72677;BME280;60755;51.374;10.662;2022-12-28T00:26:49;97663.59;;;1.81;100.00
72677;BME280;60755;51.374;10.662;2022-12-28T00:29:17;97651.97;;;1.77;100.00
72677;BME280;60755;51.374;10.662;2022-12-28T00:31:44;97646.78;;;1.77;100.00
72677;BME280;60755;51.374;10.662;2022-12-28T00:34:13;97647.47;;;1.71;100.00
72677;BME280;60755;51.374;10.662;2022-12-28T00:36:40;97643.69;;;1.81;100.00
72677;BME280;60755;51.374;10.662;2022-12-28T00:39:08;97637.03;;;1.87;100.00
72677;BME280;60755;51.374;10.662;2022-12-28T00:41:35;97631.50;;;1.90;100.00
72677;BME280;60755;51.374;10.662;2022-12-28T00:44:03;97635.06;;;1.89;100.00
72677;BME280;60755;51.374;10.662;2022-12-28T00:46:30;97622.28;;;1.87;100.00
72677;BME280;60755;51.374;10.662;2022-12-28T00:48:57;97619.16;;;1.92;100.00
72677;BME280;60755;51.374;10.662;2022-12-28T00:51:26;97607.84;;;1.93;100.00
72677;BME280;60755;51.374;10.662;2022-12-28T00:53:54;97605.94;;;1.87;100.00
72677;BME280;60755;51.374;10.662;2022-12-28T00:56:22;97614.97;;;1.91;100.00
72677;BME280;60755;51.374;10.662;2022-12-28T00:58:49;97610.13;;;1.88;100.00
72677;BME280;60755;51.374;10.662;2022-12-28T01:01:18;97599.94;;;1.86;100.00
72677;BME280;60755;51.374;10.662;2022-12-28T01:03:46;97606.06;;;1.93;100.00
72677;BME280;60755;51.374;10.662;2022-12-28T01:06:14;97608.00;;;1.91;100.00
72677;BME280;60755;51.374;10.662;2022-12-28T01:08:43;97604.59;;;1.91;100.00
72677;BME280;60755;51.374;10.662;2022-12-28T01:11:15;97587.22;;;2.00;100.00
72677;BME280;60755;51.374;10.662;2022-12-28T01:13:58;97580.09;;;2.02;100.00
72677;BME280;60755;51.374;10.662;2022-12-28T01:16:30;97584.81;;;1.98;100.00
72677;BME280;60755;51.374;10.662;2022-12-28T01:19:05;97580.91;;;2.02;100.00
72677;BME280;60755;51.374;10.662;2022-12-28T01:21:35;97581.03;;;2.09;100.00
72677;BME280;60755;51.374;10.662;2022-12-28T01:24:05;97584.75;;;2.06;100.00
72677;BME280;60755;51.374;10.662;2022-12-28T01:26:33;97581.84;;;2.09;100.00
72677;BME280;60755;51.374;10.662;2022-12-28T01:29:01;97574.56;;;2.05;100.00
72677;BME280;60755;51.374;10.662;2022-12-28T01:31:31;97565.63;;;2.07;100.00
72677;BME280;60755;51.374;10.662;2022-12-28T01:33:58;97562.03;;;2.08;100.00
72677;BME280;60755;51.374;10.662;2022-12-28T01:36:27;97558.16;;;2.12;100.00
72677;BME280;60755;51.374;10.662;2022-12-28T01:38:58;97562.97;;;2.15;100.00
72677;BME280;60755;51.374;10.662;2022-12-28T01:41:28;97556.97;;;2.15;100.00
72677;BME280;60755;51.374;10.662;2022-12-28T01:47:03;97534.38;;;2.09;100.00
72677;BME280;60755;51.374;10.662;2022-12-28T01:49:36;97529.34;;;2.07;100.00
72677;BME280;60755;51.374;10.662;2022-12-28T01:52:06;97519.38;;;2.19;100.00
72677;BME280;60755;51.374;10.662;2022-12-28T01:54:36;97518.47;;;2.12;100.00
72677;BME280;60755;51.374;10.662;2022-12-28T01:57:08;97513.09;;;2.13;100.00
72677;BME280;60755;51.374;10.662;2022-12-28T01:59:38;97511.94;;;2.16;100.00
72677;BME280;60755;51.374;10.662;2022-12-28T02:02:08;97510.72;;;2.27;100.00
72677;BME280;60755;51.374;10.662;2022-12-28T02:04:35;97495.19;;;2.27;100.00
72677;BME280;60755;51.374;10.662;2022-12-28T02:07:03;97488.19;;;2.27;100.00
72677;BME280;60755;51.374;10.662;2022-12-28T02:09:33;97475.50;;;2.32;100.00
72677;BME280;60755;51.374;10.662;2022-12-28T02:12:04;97481.16;;;2.36;100.00
72677;BME280;60755;51.374;10.662;2022-12-28T02:14:33;97478.94;;;2.33;100.00
72677;BME280;60755;51.374;10.662;2022-12-28T02:17:01;97470.50;;;2.31;100.00
72677;BME280;60755;51.374;10.662;2022-12-28T02:19:32;97477.88;;;2.42;100.00
72677;BME280;60755;51.374;10.662;2022-12-28T02:22:31;97474.19;;;2.51;100.00
72677;BME280;60755;51.374;10.662;2022-12-28T02:25:16;97469.63;;;2.53;100.00
72677;BME280;60755;51.374;10.662;2022-12-28T02:27:53;97468.84;;;2.52;100.00
72677;BME280;60755;51.374;10.662;2022-12-28T02:30:27;97460.06;;;2.53;100.00
72677;BME280;60755;51.374;10.662;2022-12-28T02:32:59;97451.84;;;2.50;100.00
72677;BME280;60755;51.374;10.662;2022-12-28T02:35:35;97448.09;;;2.52;100.00
72677;BME280;60755;51.374;10.662;2022-12-28T02:38:09;97456.03;;;2.51;100.00
72677;BME280;60755;51.374;10.662;2022-12-28T02:40:39;97435.81;;;2.46;99.55
72677;BME280;60755;51.374;10.662;2022-12-28T02:43:08;97441.72;;;2.40;100.00
72677;BME280;60755;51.374;10.662;2022-12-28T02:45:41;97441.91;;;2.39;100.00
72677;BME280;60755;51.374;10.662;2022-12-28T02:48:26;97440.91;;;2.40;100.00
72677;BME280;60755;51.374;10.662;2022-12-28T02:51:20;97434.41;;;2.44;100.00
72677;BME280;60755;51.374;10.662;2022-12-28T02:54:14;97426.81;;;2.42;100.00
72677;BME280;60755;51.374;10.662;2022-12-28T02:57:11;97430.81;;;2.45;100.00
72677;BME280;60755;51.374;10.662;2022-12-28T02:59:53;97422.59;;;2.41;99.86
72677;BME280;60755;51.374;10.662;2022-12-28T03:02:32;97417.84;;;2.45;100.00
72677;BME280;60755;51.374;10.662;2022-12-28T03:05:11;97414.63;;;2.43;100.00
72677;BME280;60755;51.374;10.662;2022-12-28T03:07:46;97405.16;;;2.50;100.00
72677;BME280;60755;51.374;10.662;2022-12-28T03:10:37;97403.09;;;2.45;99.83
72677;BME280;60755;51.374;10.662;2022-12-28T03:13:10;97395.59;;;2.36;100.00
72677;BME280;60755;51.374;10.662;2022-12-28T03:15:54;97376.16;;;2.46;100.00
72677;BME280;60755;51.374;10.662;2022-12-28T03:18:27;97364.75;;;2.41;100.00
72677;BME280;60755;51.374;10.662;2022-12-28T03:21:14;97367.88;;;2.36;100.00
72677;BME280;60755;51.374;10.662;2022-12-28T03:24:00;97368.16;;;2.27;100.00
72677;BME280;60755;51.374;10.662;2022-12-28T03:26:50;97372.97;;;2.30;100.00
72677;BME280;60755;51.374;10.662;2022-12-28T03:29:46;97366.06;;;2.37;100.00
72677;BME280;60755;51.374;10.662;2022-12-28T03:32:34;97360.63;;;2.32;100.00
72677;BME280;60755;51.374;10.662;2022-12-28T03:35:03;97354.38;;;2.41;100.00
72677;BME280;60755;51.374;10.662;2022-12-28T03:37:33;97351.13;;;2.39;100.00
72677;BME280;60755;51.374;10.662;2022-12-28T03:40:16;97352.41;;;2.43;100.00
72677;BME280;60755;51.374;10.662;2022-12-28T03:42:50;97360.81;;;2.45;100.00
72677;BME280;60755;51.374;10.662;2022-12-28T03:45:40;97356.22;;;2.47;100.00
72677;BME280;60755;51.374;10.662;2022-12-28T03:48:10;97338.06;;;2.47;100.00
72677;BME280;60755;51.374;10.662;2022-12-28T03:50:41;97334.16;;;2.51;100.00
72677;BME280;60755;51.374;10.662;2022-12-28T03:53:09;97333.59;;;2.56;100.00
72677;BME280;60755;51.374;10.662;2022-12-28T03:55:38;97340.22;;;2.58;100.00
72677;BME280;60755;51.374;10.662;2022-12-28T03:58:06;97337.88;;;2.63;100.00
72677;BME280;60755;51.374;10.662;2022-12-28T04:00:33;97335.13;;;2.65;100.00
72677;BME280;60755;51.374;10.662;2022-12-28T04:03:01;97339.66;;;2.63;100.00
72677;BME280;60755;51.374;10.662;2022-12-28T04:05:28;97328.38;;;2.70;100.00
72677;BME280;60755;51.374;10.662;2022-12-28T04:07:56;97332.34;;;2.66;100.00
72677;BME280;60755;51.374;10.662;2022-12-28T04:10:23;97320.34;;;2.65;100.00
72677;BME280;60755;51.374;10.662;2022-12-28T04:12:53;97320.72;;;2.62;100.00
72677;BME280;60755;51.374;10.662;2022-12-28T04:15:28;97319.97;;;2.68;100.00
72677;BME280;60755;51.374;10.662;2022-12-28T04:17:59;97307.72;;;2.62;100.00
72677;BME280;60755;51.374;10.662;2022-12-28T04:20:26;97296.25;;;2.71;100.00
72677;BME280;60755;51.374;10.662;2022-12-28T04:22:53;97285.28;;;2.69;100.00
72677;BME280;60755;51.374;10.662;2022-12-28T04:25:21;97272.50;;;2.68;100.00
72677;BME280;60755;51.374;10.662;2022-12-28T04:27:49;97270.44;;;2.63;100.00
72677;BME280;60755;51.374;10.662;2022-12-28T04:30:45;97260.69;;;2.65;100.00
72677;BME280;60755;51.374;10.662;2022-12-28T04:33:12;97262.41;;;2.58;100.00
72677;BME280;60755;51.374;10.662;2022-12-28T04:35:41;97264.38;;;2.56;100.00
72677;BME280;60755;51.374;10.662;2022-12-28T04:38:08;97255.25;;;2.60;100.00
72677;BME280;60755;51.374;10.662;2022-12-28T04:40:37;97254.25;;;2.61;100.00
72677;BME280;60755;51.374;10.662;2022-12-28T04:43:03;97237.88;;;2.61;100.00
72677;BME280;60755;51.374;10.662;2022-12-28T04:45:30;97240.47;;;2.61;100.00
72677;BME280;60755;51.374;10.662;2022-12-28T04:47:58;97238.88;;;2.60;100.00
72677;BME280;60755;51.374;10.662;2022-12-28T04:50:25;97241.34;;;2.68;100.00
72677;BME280;60755;51.374;10.662;2022-12-28T04:52:52;97247.66;;;2.59;100.00
72677;BME280;60755;51.374;10.662;2022-12-28T04:55:19;97245.41;;;2.56;100.00
72677;BME280;60755;51.374;10.662;2022-12-28T04:57:48;97236.47;;;2.58;100.00
72677;BME280;60755;51.374;10.662;2022-12-28T05:00:15;97237.97;;;2.67;100.00
72677;BME280;60755;51.374;10.662;2022-12-28T05:02:42;97234.25;;;2.76;100.00
72677;BME280;60755;51.374;10.662;2022-12-28T05:05:09;97226.28;;;2.78;100.00
72677;BME280;60755;51.374;10.662;2022-12-28T05:07:36;97222.88;;;2.77;100.00
72677;BME280;60755;51.374;10.662;2022-12-28T05:10:04;97211.91;;;2.75;100.00
72677;BME280;60755;51.374;10.662;2022-12-28T05:12:31;97207.63;;;2.68;100.00
72677;BME280;60755;51.374;10.662;2022-12-28T05:14:59;97206.72;;;2.75;100.00
72677;BME280;60755;51.374;10.662;2022-12-28T05:17:26;97193.16;;;2.80;100.00
72677;BME280;60755;51.374;10.662;2022-12-28T05:19:53;97189.16;;;2.77;100.00
72677;BME280;60755;51.374;10.662;2022-12-28T05:22:20;97195.34;;;2.76;100.00
72677;BME280;60755;51.374;10.662;2022-12-28T05:24:47;97187.16;;;2.79;100.00
72677;BME280;60755;51.374;10.662;2022-12-28T05:27:14;97190.81;;;2.85;100.00
72677;BME280;60755;51.374;10.662;2022-12-28T05:29:41;97195.47;;;2.90;100.00
72677;BME280;60755;51.374;10.662;2022-12-28T05:32:09;97188.47;;;2.90;100.00
72677;BME280;60755;51.374;10.662;2022-12-28T05:34:36;97170.44;;;2.82;100.00
72677;BME280;60755;51.374;10.662;2022-12-28T05:37:03;97163.66;;;2.81;100.00
72677;BME280;60755;51.374;10.662;2022-12-28T05:39:30;97157.28;;;2.84;100.00
72677;BME280;60755;51.374;10.662;2022-12-28T05:41:57;97152.63;;;2.79;100.00
72677;BME280;60755;51.374;10.662;2022-12-28T05:44:25;97148.63;;;2.76;100.00
72677;BME280;60755;51.374;10.662;2022-12-28T05:46:52;97147.66;;;2.77;100.00
72677;BME280;60755;51.374;10.662;2022-12-28T05:49:20;97134.53;;;2.86;100.00
72677;BME280;60755;51.374;10.662;2022-12-28T05:51:48;97139.84;;;2.77;100.00
72677;BME280;60755;51.374;10.662;2022-12-28T05:54:16;97142.06;;;2.80;100.00
72677;BME280;60755;51.374;10.662;2022-12-28T05:56:43;97140.97;;;2.90;100.00
72677;BME280;60755;51.374;10.662;2022-12-28T05:59:11;97131.56;;;2.89;100.00
72677;BME280;60755;51.374;10.662;2022-12-28T06:01:39;97131.38;;;2.90;100.00
72677;BME280;60755;51.374;10.662;2022-12-28T06:04:09;97137.00;;;2.94;100.00
72677;BME280;60755;51.374;10.662;2022-12-28T06:06:39;97125.41;;;2.96;100.00
72677;BME280;60755;51.374;10.662;2022-12-28T06:09:06;97130.66;;;3.03;100.00
72677;BME280;60755;51.374;10.662;2022-12-28T06:11:33;97135.09;;;3.09;100.00
72677;BME280;60755;51.374;10.662;2022-12-28T06:13:59;97146.94;;;3.18;100.00
72677;BME280;60755;51.374;10.662;2022-12-28T06:16:30;97137.31;;;3.12;100.00
72677;BME280;60755;51.374;10.662;2022-12-28T06:18:57;97128.22;;;3.23;100.00
72677;BME280;60755;51.374;10.662;2022-12-28T06:21:26;97127.25;;;3.30;100.00
72677;BME280;60755;51.374;10.662;2022-12-28T06:23:56;97134.09;;;3.38;100.00
72677;BME280;60755;51.374;10.662;2022-12-28T06:26:24;97129.69;;;3.39;100.00
72677;BME280;60755;51.374;10.662;2022-12-28T06:28:52;97127.53;;;3.49;100.00
72677;BME280;60755;51.374;10.662;2022-12-28T06:31:20;97119.59;;;3.57;100.00
72677;BME280;60755;51.374;10.662;2022-12-28T06:33:50;97113.78;;;3.55;100.00
72677;BME280;60755;51.374;10.662;2022-12-28T06:36:20;97100.84;;;3.68;100.00
72677;BME280;60755;51.374;10.662;2022-12-28T06:38:48;97101.28;;;3.72;100.00
72677;BME280;60755;51.374;10.662;2022-12-28T06:41:18;97112.69;;;3.77;100.00
72677;BME280;60755;51.374;10.662;2022-12-28T06:43:46;97086.31;;;3.80;100.00
72677;BME280;60755;51.374;10.662;2022-12-28T06:46:15;97087.09;;;3.81;100.00
72677;BME280;60755;51.374;10.662;2022-12-28T06:48:42;97091.09;;;3.83;100.00
72677;BME280;60755;51.374;10.662;2022-12-28T06:51:12;97084.72;;;3.86;100.00
72677;BME280;60755;51.374;10.662;2022-12-28T06:53:39;97082.34;;;3.98;100.00
72677;BME280;60755;51.374;10.662;2022-12-28T06:56:09;97081.97;;;3.94;100.00
72677;BME280;60755;51.374;10.662;2022-12-28T06:58:39;97087.16;;;4.01;100.00
72677;BME280;60755;51.374;10.662;2022-12-28T07:01:06;97084.38;;;4.02;100.00
72677;BME280;60755;51.374;10.662;2022-12-28T07:03:34;97078.75;;;3.99;100.00
72677;BME280;60755;51.374;10.662;2022-12-28T07:06:02;97074.78;;;4.03;100.00
72677;BME280;60755;51.374;10.662;2022-12-28T07:08:29;97067.56;;;4.05;100.00
72677;BME280;60755;51.374;10.662;2022-12-28T07:11:01;97062.38;;;4.05;100.00
72677;BME280;60755;51.374;10.662;2022-12-28T07:13:28;97071.19;;;4.10;100.00
72677;BME280;60755;51.374;10.662;2022-12-28T07:15:56;97065.97;;;4.17;100.00
72677;BME280;60755;51.374;10.662;2022-12-28T07:18:23;97074.78;;;4.16;100.00
72677;BME280;60755;51.374;10.662;2022-12-28T07:20:50;97068.59;;;4.24;100.00
72677;BME280;60755;51.374;10.662;2022-12-28T07:23:17;97073.63;;;4.25;100.00
72677;BME280;60755;51.374;10.662;2022-12-28T07:25:44;97072.41;;;4.21;100.00
72677;BME280;60755;51.374;10.662;2022-12-28T07:28:11;97079.00;;;4.24;100.00
72677;BME280;60755;51.374;10.662;2022-12-28T07:30:38;97064.00;;;4.32;100.00
72677;BME280;60755;51.374;10.662;2022-12-28T07:33:06;97071.41;;;4.29;100.00
72677;BME280;60755;51.374;10.662;2022-12-28T07:35:33;97060.78;;;4.30;100.00
72677;BME280;60755;51.374;10.662;2022-12-28T07:38:00;97068.03;;;4.35;100.00
72677;BME280;60755;51.374;10.662;2022-12-28T07:40:27;97065.22;;;4.36;100.00
72677;BME280;60755;51.374;10.662;2022-12-28T07:42:54;97066.41;;;4.34;100.00
72677;BME280;60755;51.374;10.662;2022-12-28T07:45:21;97063.63;;;4.35;100.00
72677;BME280;60755;51.374;10.662;2022-12-28T07:47:48;97062.00;;;4.34;100.00
72677;BME280;60755;51.374;10.662;2022-12-28T07:50:16;97060.81;;;4.37;100.00
72677;BME280;60755;51.374;10.662;2022-12-28T07:52:43;97067.19;;;4.41;100.00
72677;BME280;60755;51.374;10.662;2022-12-28T07:55:10;97064.81;;;4.46;100.00
72677;BME280;60755;51.374;10.662;2022-12-28T07:57:38;97062.22;;;4.46;100.00
72677;BME280;60755;51.374;10.662;2022-12-28T08:00:06;97059.19;;;4.56;100.00
72677;BME280;60755;51.374;10.662;2022-12-28T08:02:38;97062.63;;;4.49;100.00
72677;BME280;60755;51.374;10.662;2022-12-28T08:05:05;97060.03;;;4.49;100.00
72677;BME280;60755;51.374;10.662;2022-12-28T08:07:34;97058.59;;;4.54;100.00
72677;BME280;60755;51.374;10.662;2022-12-28T08:10:01;97059.19;;;4.56;100.00
72677;BME280;60755;51.374;10.662;2022-12-28T08:12:28;97052.81;;;4.52;100.00
72677;BME280;60755;51.374;10.662;2022-12-28T08:14:55;97064.22;;;4.51;100.00
72677;BME280;60755;51.374;10.662;2022-12-28T08:17:25;97050.22;;;4.58;100.00
72677;BME280;60755;51.374;10.662;2022-12-28T08:19:52;97051.19;;;4.64;100.00
72677;BME280;60755;51.374;10.662;2022-12-28T08:22:20;97051.19;;;4.64;100.00
72677;BME280;60755;51.374;10.662;2022-12-28T08:24:48;97056.00;;;4.67;100.00
72677;BME280;60755;51.374;10.662;2022-12-28T08:27:15;97064.41;;;4.69;100.00
72677;BME280;60755;51.374;10.662;2022-12-28T08:29:42;97062.22;;;4.66;100.00
72677;BME280;60755;51.374;10.662;2022-12-28T08:32:09;97060.78;;;4.63;100.00
72677;BME280;60755;51.374;10.662;2022-12-28T08:34:36;97059.63;;;4.66;100.00
72677;BME280;60755;51.374;10.662;2022-12-28T08:37:03;97057.41;;;4.69;100.00
72677;BME280;60755;51.374;10.662;2022-12-28T08:39:30;97056.81;;;4.67;100.00
72677;BME280;60755;51.374;10.662;2022-12-28T08:41:58;97058.41;;;4.75;100.00
72677;BME280;60755;51.374;10.662;2022-12-28T08:44:25;97058.38;;;4.88;100.00
72677;BME280;60755;51.374;10.662;2022-12-28T08:46:53;97055.16;;;4.93;100.00
72677;BME280;60755;51.374;10.662;2022-12-28T08:49:20;97056.59;;;4.82;100.00
72677;BME280;60755;51.374;10.662;2022-12-28T08:51:47;97065.59;;;4.80;100.00
72677;BME280;60755;51.374;10.662;2022-12-28T08:54:14;97045.34;;;4.88;100.00
72677;BME280;60755;51.374;10.662;2022-12-28T08:56:42;97047.94;;;4.95;100.00
72677;BME280;60755;51.374;10.662;2022-12-28T08:59:12;97044.34;;;4.96;100.00
72677;BME280;60755;51.374;10.662;2022-12-28T09:01:40;97042.94;;;4.93;100.00
72677;BME280;60755;51.374;10.662;2022-12-28T09:04:11;97050.91;;;5.05;100.00
72677;BME280;60755;51.374;10.662;2022-12-28T09:06:38;97050.75;;;5.07;100.00
72677;BME280;60755;51.374;10.662;2022-12-28T09:09:07;97048.31;;;5.12;100.00
72677;BME280;60755;51.374;10.662;2022-12-28T09:11:37;97057.31;;;5.16;100.00
72677;BME280;60755;51.374;10.662;2022-12-28T09:14:06;97057.72;;;5.19;100.00
72677;BME280;60755;51.374;10.662;2022-12-28T09:16:36;97052.91;;;5.23;100.00
72677;BME280;60755;51.374;10.662;2022-12-28T09:19:05;97049.28;;;5.24;100.00
72677;BME280;60755;51.374;10.662;2022-12-28T09:21:35;97041.84;;;5.34;100.00
72677;BME280;60755;51.374;10.662;2022-12-28T09:24:03;97038.00;;;5.43;100.00
72677;BME280;60755;51.374;10.662;2022-12-28T09:26:34;97043.38;;;5.48;100.00
72677;BME280;60755;51.374;10.662;2022-12-28T09:29:03;97050.38;;;5.54;100.00
72677;BME280;60755;51.374;10.662;2022-12-28T09:31:32;97052.75;;;5.63;100.00
72677;BME280;60755;51.374;10.662;2022-12-28T09:34:03;97045.94;;;5.61;100.00
72677;BME280;60755;51.374;10.662;2022-12-28T09:36:31;97043.53;;;5.60;100.00
72677;BME280;60755;51.374;10.662;2022-12-28T09:39:00;97040.53;;;5.63;100.00
72677;BME280;60755;51.374;10.662;2022-12-28T09:41:29;97041.47;;;5.69;100.00
72677;BME280;60755;51.374;10.662;2022-12-28T09:44:16;97044.28;;;5.67;100.00
72677;BME280;60755;51.374;10.662;2022-12-28T09:46:49;97042.09;;;5.71;100.00
72677;BME280;60755;51.374;10.662;2022-12-28T09:49:20;97036.88;;;5.71;100.00
72677;BME280;60755;51.374;10.662;2022-12-28T09:51:53;97035.28;;;5.70;100.00
72677;BME280;60755;51.374;10.662;2022-12-28T09:54:23;97030.44;;;5.73;99.93
72677;BME280;60755;51.374;10.662;2022-12-28T09:56:50;97038.03;;;5.75;99.88
72677;BME280;60755;51.374;10.662;2022-12-28T09:59:20;97036.03;;;5.77;99.50
72677;BME280;60755;51.374;10.662;2022-12-28T10:01:53;97040.84;;;5.80;99.40
72677;BME280;60755;51.374;10.662;2022-12-28T10:04:23;97028.00;;;5.78;99.90
72677;BME280;60755;51.374;10.662;2022-12-28T10:06:50;97027.63;;;5.75;100.00
72677;BME280;60755;51.374;10.662;2022-12-28T10:09:22;97024.53;;;5.84;100.00
72677;BME280;60755;51.374;10.662;2022-12-28T10:11:51;97020.75;;;5.87;100.00
72677;BME280;60755;51.374;10.662;2022-12-28T10:14:20;97018.31;;;5.85;100.00
72677;BME280;60755;51.374;10.662;2022-12-28T10:16:48;97015.94;;;5.84;100.00
72677;BME280;60755;51.374;10.662;2022-12-28T10:19:16;97018.78;;;5.76;100.00
72677;BME280;60755;51.374;10.662;2022-12-28T10:21:46;97012.78;;;5.75;100.00
72677;BME280;60755;51.374;10.662;2022-12-28T10:24:23;97010.88;;;5.89;100.00
72677;BME280;60755;51.374;10.662;2022-12-28T10:26:50;97002.84;;;5.97;100.00
72677;BME280;60755;51.374;10.662;2022-12-28T10:29:19;97007.81;;;6.05;100.00
72677;BME280;60755;51.374;10.662;2022-12-28T10:31:56;96999.53;;;6.08;100.00
72677;BME280;60755;51.374;10.662;2022-12-28T10:34:24;97008.59;;;6.06;100.00
72677;BME280;60755;51.374;10.662;2022-12-28T10:36:53;97005.13;;;6.19;99.58
72677;BME280;60755;51.374;10.662;2022-12-28T10:39:24;97015.72;;;6.17;99.41
72677;BME280;60755;51.374;10.662;2022-12-28T10:41:53;97013.94;;;6.17;99.07
72677;BME280;60755;51.374;10.662;2022-12-28T10:44:24;97011.78;;;6.08;99.68
72677;BME280;60755;51.374;10.662;2022-12-28T10:46:56;97001.41;;;6.01;100.00
72677;BME280;60755;51.374;10.662;2022-12-28T10:49:24;97006.25;;;5.98;100.00
72677;BME280;60755;51.374;10.662;2022-12-28T10:52:03;97010.09;;;5.95;100.00
72677;BME280;60755;51.374;10.662;2022-12-28T10:54:32;97005.50;;;5.91;99.82
72677;BME280;60755;51.374;10.662;2022-12-28T10:57:00;96997.84;;;5.89;99.92
72677;BME280;60755;51.374;10.662;2022-12-28T10:59:28;97006.94;;;5.80;100.00
72677;BME280;60755;51.374;10.662;2022-12-28T11:02:21;97000.47;;;5.89;100.00
72677;BME280;60755;51.374;10.662;2022-12-28T11:04:54;97000.66;;;5.94;99.56
72677;BME280;60755;51.374;10.662;2022-12-28T11:07:29;96996.84;;;5.90;99.38
72677;BME280;60755;51.374;10.662;2022-12-28T11:10:15;96984.50;;;5.79;100.00
72677;BME280;60755;51.374;10.662;2022-12-28T11:12:47;96993.47;;;5.83;100.00
72677;BME280;60755;51.374;10.662;2022-12-28T11:15:17;96984.06;;;5.82;100.00
72677;BME280;60755;51.374;10.662;2022-12-28T11:17:51;96981.00;;;5.85;99.75
72677;BME280;60755;51.374;10.662;2022-12-28T11:20:21;96965.81;;;5.82;99.87
72677;BME280;60755;51.374;10.662;2022-12-28T11:22:51;96969.38;;;5.94;98.88
72677;BME280;60755;51.374;10.662;2022-12-28T11:25:20;96968.19;;;5.83;99.30
72677;BME280;60755;51.374;10.662;2022-12-28T11:27:49;96965.97;;;5.87;99.91
72677;BME280;60755;51.374;10.662;2022-12-28T11:30:17;96964.56;;;5.91;99.29
72677;BME280;60755;51.374;10.662;2022-12-28T11:32:48;96964.03;;;6.07;98.85
72677;BME280;60755;51.374;10.662;2022-12-28T11:35:18;96964.47;;;6.04;98.75
72677;BME280;60755;51.374;10.662;2022-12-28T11:37:55;96962.94;;;6.22;98.03
72677;BME280;60755;51.374;10.662;2022-12-28T11:40:48;96960.38;;;6.15;97.90
72677;BME280;60755;51.374;10.662;2022-12-28T11:43:41;96948.69;;;6.17;97.18
72677;BME280;60755;51.374;10.662;2022-12-28T11:46:41;96954.75;;;6.18;97.39
72677;BME280;60755;51.374;10.662;2022-12-28T11:49:32;96945.47;;;6.22;96.67
72677;BME280;60755;51.374;10.662;2022-12-28T11:52:33;96945.69;;;6.21;96.76
72677;BME280;60755;51.374;10.662;2022-12-28T11:55:37;96954.56;;;6.38;95.79
72677;BME280;60755;51.374;10.662;2022-12-28T12:01:47;96941.00;;;6.29;96.41
72677;BME280;60755;51.374;10.662;2022-12-28T12:04:33;96939.25;;;6.41;94.63
72677;BME280;60755;51.374;10.662;2022-12-28T12:07:23;96941.22;;;6.46;95.78
72677;BME280;60755;51.374;10.662;2022-12-28T12:15:45;96942.78;;;6.54;95.07
72677;BME280;60755;51.374;10.662;2022-12-28T12:18:18;96933.75;;;6.50;94.28
72677;BME280;60755;51.374;10.662;2022-12-28T12:20:51;96936.66;;;6.41;94.61
72677;BME280;60755;51.374;10.662;2022-12-28T12:23:25;96933.47;;;6.39;95.19
72677;BME280;60755;51.374;10.662;2022-12-28T12:25:57;96938.91;;;6.38;94.92
72677;BME280;60755;51.374;10.662;2022-12-28T12:28:39;96931.00;;;6.26;94.91
72677;BME280;60755;51.374;10.662;2022-12-28T12:31:12;96931.06;;;6.38;94.57
72677;BME280;60755;51.374;10.662;2022-12-28T12:33:44;96926.44;;;6.40;94.35
72677;BME280;60755;51.374;10.662;2022-12-28T12:36:29;96915.72;;;6.48;94.25
72677;BME280;60755;51.374;10.662;2022-12-28T12:39:15;96928.47;;;6.38;94.95
72677;BME280;60755;51.374;10.662;2022-12-28T12:41:48;96921.94;;;6.47;94.42
72677;BME280;60755;51.374;10.662;2022-12-28T12:44:27;96921.00;;;6.41;94.77
72677;BME280;60755;51.374;10.662;2022-12-28T12:47:09;96913.25;;;6.53;93.82
72677;BME280;60755;51.374;10.662;2022-12-28T12:52:53;96902.81;;;6.71;92.61
72677;BME280;60755;51.374;10.662;2022-12-28T12:55:37;96904.13;;;6.62;92.76
72677;BME280;60755;51.374;10.662;2022-12-28T12:58:12;96903.56;;;6.60;93.57
72677;BME280;60755;51.374;10.662;2022-12-28T13:00:51;96893.09;;;6.79;91.79
72677;BME280;60755;51.374;10.662;2022-12-28T13:03:27;96898.84;;;6.69;92.17
72677;BME280;60755;51.374;10.662;2022-12-28T13:05:58;96882.13;;;6.88;90.99
72677;BME280;60755;51.374;10.662;2022-12-28T13:08:26;96890.91;;;6.94;90.87
72677;BME280;60755;51.374;10.662;2022-12-28T13:10:54;96888.25;;;6.82;90.43
72677;BME280;60755;51.374;10.662;2022-12-28T13:13:28;96888.03;;;6.84;90.10
72677;BME280;60755;51.374;10.662;2022-12-28T13:16:02;96891.06;;;6.81;91.65
72677;BME280;60755;51.374;10.662;2022-12-28T13:18:30;96894.41;;;6.69;91.81
72677;BME280;60755;51.374;10.662;2022-12-28T13:20:59;96894.69;;;6.61;91.48
72677;BME280;60755;51.374;10.662;2022-12-28T13:23:27;96893.22;;;6.65;90.92
72677;BME280;60755;51.374;10.662;2022-12-28T13:25:56;96879.88;;;6.73;91.10
72677;BME280;60755;51.374;10.662;2022-12-28T13:28:27;96884.41;;;6.66;92.51
72677;BME280;60755;51.374;10.662;2022-12-28T13:30:59;96880.78;;;6.67;91.79